Jackson, MS

12:41 AM CDT on July 06, 2015 (GMT -0500)
Brinkly | | Change Station
CLOSE
Current Station
Personal Weather Station
Location: Jackson, MS
Elevation: 344 ft
Nearby Weather Stations

Elev 344 ft 32.35 °N, 90.20 °W | Updated 6 minutes ago

Mostly Cloudy
Mostly Cloudy
71.6 °F
Feels Like 71.6 °F
N
0.0
Wind Variable Wind from South

Today
High -- | Low -- °F
--% Chance of Precip.
Yesterday
High -- | Low -- °F
Precip. -- in
5:59 AM 8:11 PM
Waning Gibbous, 78% visible
Pressure 30.08 in
Visibility 10.0 miles
Clouds Few 400 ft
Dew Point 71 °F
Humidity 98%
Rainfall 0.00 in
Snow Depth Not available.
UV 0 out of 12
Pollen .50 out of 12
Air Quality Not available.
Flu Activity Not available.
SPECI KHKS 060531Z AUTO 00000KT 10SM FEW004 21/19 A3008 RMK AO2 T02060194

More Conditions Fewer Conditions

Pressure 30.08 in
Visibility 10.0 miles
Clouds Few 400 ft
Dew Point 71 °F
Humidity 98%
Rainfall 0.00 in
Snow Depth Not available.
UV 0 out of 12
Pollen .50 out of 12
Air Quality Not available.
Flu Activity Not available.
SPECI KHKS 060531Z AUTO 00000KT 10SM FEW004 21/19 A3008 RMK AO2 T02060194

More Conditions Fewer Conditions

10-Day Weather Forecast

×

Almanac

Astronomy

Jul. 06, 2015 Rise Set
Actual Time
Civil Twilight
Nautical Twilight
Astronomical Twilight
Moon
Length of Visible Light
Length of Day
Tomorrow will be .
, % of the Moon is Illuminated

Today's Extremes

State Highs State Lows

Community

WunderPhotos

Upload Photos

1,835,491 photos uploaded!

WunderBlogs® & News

Nearby

Air Quality

  Air Quality AQ Index Pollutant
Not available.

Snow Depth

Station Depth Elevation

Earthquake Activity

City Distance Mag. Time & Date
Minimum magnitude displayed is 2.5.

Coastal Water Temperatures

Place Temperature

Stations

Nearby Weather Stations

Station Location Temp. Windchill Dew Point Humidity Wind Precip. Elev Updated Type